KBCT/BCT METAR and TAF weather

Enter ICAO airport designator
Station Type Date Time Source
KBCT METAR 2021/09/25 19:53 UTC NOAA

KBCT 251953Z 04015G20KT 10SM SCT040 31/24 A2997 RMK LTG DSNT ALQDS.


Station Type Date Time Source
KBCT Decoded METAR 2021/09/25 19:53 UTC NOAA

Boca Raton, Boca Raton Airport, FL, United States (KBCT) 26-22-43N 080-06-28W
Sep 25, 2021 - 03:53 PM EDT / 2021.09.25 1953 UTC
Wind: from the NE (040 degrees) at 17 MPH (15 KT) gusting to 23 MPH (20 KT):0
Visibility: 10 mile(s):0
Sky conditions: partly cloudy
Weather: Lightning observed
Temperature: 87 F (31 C)
Heat index: 95.7 F (35.4 C):1
Dew Point: 75 F (24 C)
Relative Humidity: 66%
Pressure (altimeter): 29.97 in. Hg (1014 hPa)
ob: KBCT 251953Z 04015G20KT 10SM SCT040 31/24 A2997 RMK LTG DSNT ALQDS.
cycle: 20

Station Type Date Time Source
KBCT TAF 2020/02/03 18:20 UTC NOAA

TAF KBCT 031720Z 0318/0418 12005KT P6SM SKC
FM040000 VRB03KT P6SM SKC
FM041400 16011KT P6SM FEW030

Example: see airport list